Norfolk, Virginia
Traffic Map
Current Weather Conditions
Norfolk, Virginia
Clear
Clear
22°
Feels Like: 22°
Wind Chill: 22° Ceiling: Unl
Heat Index: 22° Visibility: 10mi
Dew Point: 16° Wind: 13mph
Humidity: 68% Direction: 350° (N)
Pressure: 29.91in Gusts: 0mph
Raw Report DataKORF 291251Z AUTO 35011KT 10SM CLR 22/16 A2991 RMK AO2 SLP129 T02220161 TSNO
Traffic Incident Summary
Active as of:
Severity:
Category:
InformationThere was an issue retrieving the traffic information for this location. Please try a different location or try again shortly.
Advertisements
Track Severe Weather on mobile